Time;durP1;ratioP1;P1;durP2;ratioP2;P2;SDS_P1;SDS_P2;PMS_P1;PMS_P2;Temp;Humidity;BMP_temperature;BMP_pressure;BME280_temperature;BME280_humidity;BME280_pressure;Samples;Min_cycle;Max_cycle;Signal;HPM_P1;HPM_P2
2022/09/13 00:00:50;;;;;;;6.53;2.40;;;;;;;19.91;62.33;100165.53;5052148;28;20384;-80
2022/09/13 00:03:16;;;;;;;8.40;2.17;;;;;;;19.85;62.60;100155.41;5052527;28;20021;-79
2022/09/13 00:05:42;;;;;;;2.58;1.60;;;;;;;19.83;62.93;100163.81;5050865;28;20025;-79
2022/09/13 00:08:08;;;;;;;4.43;1.95;;;;;;;19.77;63.18;100177.38;5052663;28;20028;-78
2022/09/13 00:10:37;;;;;;;9.07;1.95;;;;;;;19.71;63.40;100180.91;5055719;28;20017;-81
2022/09/13 00:13:04;;;;;;;9.15;1.92;;;;;;;19.76;63.22;100183.88;5055667;28;20021;-79
2022/09/13 00:15:29;;;;;;;3.83;1.50;;;;;;;19.62;63.03;100154.78;5055491;28;20056;-79
2022/09/13 00:17:55;;;;;;;3.47;1.65;;;;;;;19.70;62.85;100163.69;5055663;28;20453;-79
2022/09/13 00:20:21;;;;;;;2.33;1.55;;;;;;;19.77;61.95;100174.66;5055770;28;20025;-79
2022/09/13 00:22:46;;;;;;;6.88;2.17;;;;;;;19.71;61.16;100186.34;5056188;28;20120;-79
2022/09/13 00:25:11;;;;;;;6.22;1.48;;;;;;;19.80;60.53;100188.75;5055858;28;20081;-79
2022/09/13 00:27:37;;;;;;;8.43;2.42;;;;;;;19.75;60.03;100182.22;5055242;28;20470;-79
2022/09/13 00:30:05;;;;;;;10.00;2.15;;;;;;;19.53;59.00;100165.81;5055259;28;20029;-80
2022/09/13 00:32:30;;;;;;;6.22;1.45;;;;;;;19.63;58.08;100181.03;5055668;28;20045;-80
2022/09/13 00:34:57;;;;;;;5.07;1.83;;;;;;;19.69;57.30;100186.56;5055454;28;20104;-80
2022/09/13 00:37:22;;;;;;;3.28;2.35;;;;;;;19.72;57.56;100177.13;5054317;28;20398;-80
2022/09/13 00:39:48;;;;;;;3.47;1.42;;;;;;;19.63;57.24;100178.31;5055300;28;20029;-79
2022/09/13 00:42:14;;;;;;;2.50;1.27;;;;;;;19.65;57.41;100187.13;5055207;28;20130;-80
2022/09/13 00:45:05;;;;;;;4.30;1.75;;;;;;;19.68;57.44;100192.19;5055070;28;20044;-80
2022/09/13 00:47:46;;;;;;;1.95;1.50;;;;;;;19.45;57.88;100203.25;5050402;28;20039;-80
2022/09/13 00:50:33;;;;;;;2.53;1.20;;;;;;;19.36;58.32;100197.06;5055049;28;20556;-80
2022/09/13 00:53:10;;;;;;;2.55;1.60;;;;;;;19.44;58.51;100213.34;5055282;28;20029;-79
2022/09/13 00:55:43;;;;;;;8.48;2.03;;;;;;;19.36;58.89;100210.69;5055363;28;20099;-80
2022/09/13 00:58:19;;;;;;;2.55;1.48;;;;;;;19.35;58.99;100209.03;5055180;28;20051;-80
2022/09/13 01:00:45;;;;;;;3.58;1.67;;;;;;;19.52;58.56;100215.09;5054771;28;20025;-80
2022/09/13 01:03:13;;;;;;;8.75;1.70;;;;;;;19.61;57.95;100218.56;5055187;28;20028;-80
2022/09/13 01:05:45;;;;;;;6.63;1.60;;;;;;;19.61;57.55;100215.81;5054589;28;20444;-80
2022/09/13 01:08:14;;;;;;;4.47;1.52;;;;;;;19.74;56.61;100226.91;5054625;28;20098;-81
2022/09/13 01:10:42;;;;;;;2.67;1.15;;;;;;;19.79;55.66;100233.47;5054797;28;20021;-80
2022/09/13 01:13:14;;;;;;;5.88;1.33;;;;;;;19.65;55.18;100214.41;5054630;28;20028;-79
2022/09/13 01:15:40;;;;;;;3.20;1.10;;;;;;;19.78;54.83;100225.47;5054367;28;20052;-80
2022/09/13 01:18:07;;;;;;;4.32;1.17;;;;;;;19.81;54.60;100231.41;5054003;28;20029;-80
2022/09/13 01:21:11;;;;;;;1.60;1.30;;;;;;;19.86;53.99;100234.38;5053857;28;20021;-80
2022/09/13 01:24:03;;;;;;;1.08;0.85;;;;;;;19.85;53.64;100232.69;5045891;28;20419;-80
2022/09/13 01:26:57;;;;;;;2.85;1.30;;;;;;;19.89;53.30;100231.25;5054120;28;20029;-80
2022/09/13 01:30:01;;;;;;;3.15;1.17;;;;;;;19.75;53.61;100228.59;5054364;28;20016;-80
2022/09/13 01:32:42;;;;;;;2.28;1.05;;;;;;;19.77;53.69;100219.16;5046062;28;20098;-80
2022/09/13 01:35:17;;;;;;;6.20;4.38;;;;;;;19.78;53.53;100228.22;5054421;28;20078;-79
2022/09/13 01:37:52;;;;;;;6.18;1.35;;;;;;;19.71;53.59;100230.88;5053377;28;20379;-80
2022/09/13 01:40:43;;;;;;;2.42;1.15;;;;;;;19.67;53.93;100232.28;5054290;28;20043;-80
2022/09/13 01:43:15;;;;;;;4.07;1.00;;;;;;;19.76;53.18;100235.72;5053327;28;20040;-79
2022/09/13 01:46:04;;;;;;;1.33;0.93;;;;;;;19.73;53.08;100236.97;5054180;28;20076;-80
2022/09/13 01:48:46;;;;;;;4.82;1.00;;;;;;;19.66;53.25;100235.22;5054055;28;20027;-79
2022/09/13 01:51:40;;;;;;;1.90;1.33;;;;;;;19.60;53.57;100233.25;5054271;28;20052;-79
2022/09/13 01:54:16;;;;;;;1.35;1.20;;;;;;;19.57;53.36;100218.09;5042664;28;20040;-79
2022/09/13 01:56:56;;;;;;;2.75;1.08;;;;;;;19.63;53.26;100221.97;5053880;28;20020;-80
2022/09/13 01:59:52;;;;;;;1.85;1.10;;;;;;;19.66;52.91;100236.06;5053672;28;20033;-79
2022/09/13 02:02:17;;;;;;;1.00;0.90;;;;;;;19.54;53.21;100230.25;5053857;28;20028;-79
2022/09/13 02:04:53;;;;;;;5.55;1.05;;;;;;;19.59;53.03;100221.50;5053684;28;20387;-79
2022/09/13 02:07:36;;;;;;;8.23;1.10;;;;;;;19.42;53.13;100220.88;5053857;28;20021;-79
2022/09/13 02:10:09;;;;;;;5.63;1.38;;;;;;;19.33;53.24;100223.84;5053824;28;20029;-80
2022/09/13 02:12:36;;;;;;;;;;;;;;;19.27;53.28;100228.19;5054089;28;20025;-79
2022/09/13 02:15:09;;;;;;;3.63;1.13;;;;;;;19.24;53.39;100228.59;5052929;28;20039;-80
2022/09/13 02:17:38;;;;;;;1.80;1.00;;;;;;;19.18;53.83;100233.94;5053686;28;20055;-79
2022/09/13 02:20:10;;;;;;;1.35;1.00;;;;;;;19.15;53.41;100217.97;5053352;28;20043;-80
2022/09/13 02:22:41;;;;;;;3.58;1.33;;;;;;;19.00;53.89;100210.66;5053426;28;20029;-79
2022/09/13 02:25:15;;;;;;;4.65;1.10;;;;;;;19.10;53.97;100210.38;5053288;28;20128;-80
2022/09/13 02:27:45;;;;;;;2.63;1.30;;;;;;;19.02;54.11;100218.63;5052982;28;20387;-80
2022/09/13 02:30:13;;;;;;;2.15;1.35;;;;;;;19.02;54.48;100215.91;5052706;28;20080;-79
2022/09/13 02:32:55;;;;;;;3.45;1.20;;;;;;;18.98;54.28;100196.38;5052851;28;20031;-79
2022/09/13 02:35:38;;;;;;;2.38;1.05;;;;;;;18.93;53.94;100201.53;5053279;28;20036;-82
2022/09/13 02:38:27;;;;;;;2.80;1.20;;;;;;;18.82;54.51;100209.34;5052923;28;20086;-81
2022/09/13 02:40:59;;;;;;;5.13;1.27;;;;;;;18.81;54.73;100204.91;5052890;28;20098;-80
2022/09/13 02:43:34;;;;;;;3.30;1.30;;;;;;;18.65;54.92;100202.41;5052865;28;20096;-79
2022/09/13 02:46:18;;;;;;;3.55;1.95;;;;;;;18.69;55.12;100212.72;5052859;28;20582;-80
2022/09/13 02:48:56;;;;;;;2.70;1.20;;;;;;;18.67;55.48;100209.34;5052749;28;20024;-80
2022/09/13 02:51:27;;;;;;;3.78;1.65;;;;;;;18.67;55.14;100197.59;5052708;28;20025;-79
2022/09/13 02:54:08;;;;;;;1.70;1.23;;;;;;;18.87;54.92;100221.38;5052370;28;20039;-79
2022/09/13 02:56:57;;;;;;;5.80;1.50;;;;;;;18.92;54.78;100224.41;5052635;28;20028;-80
2022/09/13 02:59:23;;;;;;;2.50;1.20;;;;;;;18.84;54.75;100210.00;5052591;28;20025;-80
2022/09/13 03:02:00;;;;;;;2.38;1.27;;;;;;;18.91;54.90;100216.41;5052247;28;20032;-80
2022/09/13 03:04:27;;;;;;;1.63;1.33;;;;;;;18.81;55.00;100226.72;5052549;28;20029;-81
2022/09/13 03:06:53;;;;;;;2.47;1.52;;;;;;;18.86;55.19;100225.16;5052234;28;20021;-79
2022/09/13 03:09:19;;;;;;;3.92;1.63;;;;;;;18.84;55.02;100235.38;5052629;28;20036;-80
2022/09/13 03:12:12;;;;;;;1.83;1.48;;;;;;;18.78;55.00;100225.22;5052309;28;20104;-79
2022/09/13 03:15:14;;;;;;;4.20;1.58;;;;;;;18.75;55.23;100228.31;5052095;28;20036;-80
2022/09/13 03:17:53;;;;;;;11.30;3.73;;;;;;;18.74;55.58;100226.66;5031369;28;20116;-80
2022/09/13 03:20:47;;;;;;;8.65;2.05;;;;;;;18.66;55.79;100228.59;5032208;28;20065;-80
2022/09/13 03:23:13;;;;;;;6.65;1.67;;;;;;;18.61;55.79;100225.59;5017090;28;20410;-80
2022/09/13 03:25:38;;;;;;;15.75;3.03;;;;;;;18.57;55.89;100227.84;5032457;28;20025;-79
2022/09/13 03:28:28;;;;;;;6.47;1.60;;;;;;;18.55;55.74;100231.78;5032522;28;20029;-81
2022/09/13 03:31:35;;;;;;;6.13;1.67;;;;;;;18.57;55.42;100235.16;5032237;28;20033;-81
2022/09/13 03:34:10;;;;;;;13.45;2.83;;;;;;;18.32;55.44;100207.28;5020757;28;20037;-82
2022/09/13 03:37:02;;;;;;;6.72;1.77;;;;;;;18.28;55.48;100216.88;5033022;28;20025;-81
2022/09/13 03:39:51;;;;;;;9.35;1.52;;;;;;;18.27;55.50;100217.91;5033557;28;20021;-85
2022/09/13 03:42:41;;;;;;;4.70;1.33;;;;;;;18.24;55.36;100221.84;5033525;28;20368;-81
2022/09/13 03:45:08;;;;;;;4.60;2.17;;;;;;;18.17;55.48;100239.91;5029406;28;20069;-81
2022/09/13 03:47:37;;;;;;;7.03;1.98;;;;;;;18.17;55.76;100249.97;5036269;28;20033;-78
2022/09/13 03:50:06;;;;;;;3.83;1.50;;;;;;;18.17;55.82;100250.81;5035925;28;20013;-78
2022/09/13 03:52:32;;;;;;;13.60;2.35;;;;;;;18.16;55.83;100253.72;5038732;28;20506;-78
2022/09/13 03:54:58;;;;;;;3.10;1.65;;;;;;;18.04;56.13;100256.00;5055316;28;20028;-78
2022/09/13 03:57:23;;;;;;;3.88;1.77;;;;;;;18.10;55.79;100247.16;5055062;28;20128;-83
2022/09/13 03:59:52;;;;;;;11.13;2.03;;;;;;;18.11;55.59;100256.97;5056411;28;20086;-82
2022/09/13 04:02:19;;;;;;;3.10;1.77;;;;;;;18.13;55.54;100254.94;5055490;28;20029;-78
2022/09/13 04:04:45;;;;;;;3.70;2.03;;;;;;;18.08;55.70;100268.22;5056080;28;20032;-81
2022/09/13 04:07:17;;;;;;;12.95;2.55;;;;;;;18.07;55.61;100266.53;5055194;28;20056;-81
2022/09/13 04:09:42;;;;;;;11.93;2.30;;;;;;;18.10;55.55;100266.19;5055973;28;20044;-82
2022/09/13 04:12:09;;;;;;;6.95;1.70;;;;;;;17.97;55.60;100249.63;5056119;28;20130;-80
2022/09/13 04:14:34;;;;;;;9.75;2.40;;;;;;;17.87;55.74;100227.25;5055457;28;20526;-78
2022/09/13 04:17:00;;;;;;;4.75;1.58;;;;;;;18.05;55.82;100259.59;5055004;28;20056;-80
2022/09/13 04:19:25;;;;;;;19.33;2.45;;;;;;;17.96;56.36;100247.91;5056803;28;20118;-80
2022/09/13 04:21:53;;;;;;;156.18;15.93;;;;;;;18.13;56.25;100265.84;5055096;28;20033;-79
2022/09/13 04:24:19;;;;;;;14.68;1.90;;;;;;;18.21;56.29;100267.63;5054945;28;20017;-80
2022/09/13 04:26:50;;;;;;;11.85;1.83;;;;;;;18.18;56.36;100257.97;5055380;28;20021;-84
2022/09/13 04:29:17;;;;;;;8.45;2.40;;;;;;;18.10;57.15;100246.28;5055254;28;20475;-80
2022/09/13 04:31:43;;;;;;;7.75;1.90;;;;;;;18.24;57.37;100264.53;5053781;28;20039;-77
2022/09/13 04:34:08;;;;;;;13.20;1.85;;;;;;;18.28;57.30;100266.72;5052209;28;20570;-78
2022/09/13 04:36:34;;;;;;;6.10;2.35;;;;;;;18.39;56.62;100269.00;5053379;28;20025;-78
2022/09/13 04:38:59;;;;;;;52.85;6.45;;;;;;;18.43;55.75;100264.88;5052888;28;20481;-77
2022/09/13 04:41:25;;;;;;;7.03;2.40;;;;;;;18.49;55.07;100271.50;5053101;28;20036;-80
2022/09/13 04:43:51;;;;;;;9.20;2.13;;;;;;;18.48;54.50;100269.78;5053368;28;20056;-77
2022/09/13 04:46:17;;;;;;;25.45;3.85;;;;;;;18.47;54.33;100276.22;5053336;28;20029;-76
2022/09/13 04:48:46;;;;;;;22.25;2.58;;;;;;;18.42;54.53;100263.19;5052537;28;20379;-77
2022/09/13 04:51:13;;;;;;;38.08;4.05;;;;;;;18.62;53.87;100281.78;5051424;28;20055;-75
2022/09/13 04:53:39;;;;;;;13.40;1.73;;;;;;;18.59;54.11;100293.03;5050946;28;20575;-78
2022/09/13 04:56:04;;;;;;;8.30;2.17;;;;;;;18.66;53.91;100283.06;5051434;28;20017;-76
2022/09/13 04:58:31;;;;;;;26.10;2.88;;;;;;;18.64;53.72;100285.16;5051944;28;20399;-76
2022/09/13 05:01:04;;;;;;;17.50;2.15;;;;;;;18.77;52.92;100290.81;5051775;28;20021;-77
2022/09/13 05:03:31;;;;;;;20.55;2.85;;;;;;;18.73;53.03;100289.47;5051722;28;20043;-77
2022/09/13 05:06:04;;;;;;;20.13;2.17;;;;;;;18.74;53.38;100288.47;5052763;28;20032;-77
2022/09/13 05:08:30;;;;;;;16.25;2.03;;;;;;;18.88;53.31;100298.53;5053265;28;20055;-80
2022/09/13 05:10:57;;;;;;;3.80;1.50;;;;;;;18.85;52.96;100282.53;5052907;28;20025;-77
2022/09/13 05:13:23;;;;;;;21.25;2.35;;;;;;;18.82;53.08;100277.47;5051664;28;20028;-77
2022/09/13 05:15:48;;;;;;;9.40;1.83;;;;;;;18.86;53.17;100289.69;5051452;28;20025;-77
2022/09/13 05:18:14;;;;;;;7.88;1.73;;;;;;;18.76;52.98;100259.16;5052934;28;20566;-77
2022/09/13 05:20:40;;;;;;;11.43;1.70;;;;;;;19.05;52.80;100294.56;5054140;28;20029;-78
2022/09/13 05:23:05;;;;;;;4.20;1.45;;;;;;;19.16;52.31;100291.41;5052136;28;20028;-76
2022/09/13 05:25:30;;;;;;;5.68;1.75;;;;;;;19.05;52.52;100278.22;5051985;28;20044;-77
2022/09/13 05:27:57;;;;;;;4.57;1.48;;;;;;;19.11;52.69;100291.09;5052027;28;20475;-76
2022/09/13 05:30:22;;;;;;;4.55;1.35;;;;;;;19.18;52.47;100283.88;5051399;28;20044;-75
2022/09/13 05:32:48;;;;;;;16.88;1.83;;;;;;;19.19;52.40;100284.72;5051018;28;20041;-76
2022/09/13 05:35:13;;;;;;;36.53;4.95;;;;;;;19.28;52.35;100292.63;5051444;28;20596;-77
2022/09/13 05:37:39;;;;;;;15.80;2.05;;;;;;;19.39;52.20;100297.63;5050953;28;20422;-76
2022/09/13 05:40:05;;;;;;;14.50;2.97;;;;;;;19.41;51.97;100300.16;5050977;28;20029;-76
2022/09/13 05:42:30;;;;;;;30.98;3.30;;;;;;;19.49;51.84;100298.19;5052038;28;20029;-78
2022/09/13 05:44:56;;;;;;;4.50;1.55;;;;;;;19.47;50.80;100294.81;5052479;28;20032;-78
2022/09/13 05:47:22;;;;;;;7.00;1.85;;;;;;;19.51;51.23;100287.91;5052170;28;20021;-78
2022/09/13 05:49:47;;;;;;;4.05;1.25;;;;;;;19.58;51.11;100289.88;5052372;28;20017;-78
2022/09/13 05:52:12;;;;;;;4.93;1.58;;;;;;;19.76;50.68;100290.31;5052208;28;20029;-76
2022/09/13 05:54:38;;;;;;;2.05;1.48;;;;;;;19.87;50.46;100298.00;5052121;28;20016;-76
2022/09/13 05:57:03;;;;;;;3.30;1.65;;;;;;;19.76;49.98;100282.13;5052180;28;20482;-78
2022/09/13 05:59:30;;;;;;;8.73;1.55;;;;;;;19.83;50.15;100293.97;5051930;28;20466;-79
2022/09/13 06:01:56;;;;;;;2.88;1.23;;;;;;;19.99;49.76;100293.72;5050345;28;20040;-78
2022/09/13 06:04:21;;;;;;;4.72;1.52;;;;;;;20.03;49.44;100297.75;5052296;28;20024;-77
2022/09/13 06:06:47;;;;;;;22.52;2.30;;;;;;;20.12;49.12;100301.22;5050792;28;20024;-79
2022/09/13 06:09:12;;;;;;;5.72;1.20;;;;;;;20.08;49.05;100293.41;5051743;28;20112;-77
2022/09/13 06:11:38;;;;;;;16.48;1.35;;;;;;;20.28;48.74;100304.56;5051734;28;20029;-78
2022/09/13 06:14:03;;;;;;;33.25;22.80;;;;;;;20.39;48.40;100312.25;5051224;28;20233;-76
2022/09/13 06:16:29;;;;;;;4.40;2.63;;;;;;;20.39;47.91;100290.41;5051051;28;20032;-75
2022/09/13 06:18:54;;;;;;;4.07;2.13;;;;;;;20.60;47.67;100303.19;5051311;28;20033;-76
2022/09/13 06:21:21;;;;;;;3.40;2.40;;;;;;;20.64;47.90;100315.38;5051050;28;20025;-77
2022/09/13 06:23:51;;;;;;;8.15;1.70;;;;;;;20.68;48.26;100311.22;5051194;28;20021;-80
2022/09/13 06:26:19;;;;;;;11.73;1.85;;;;;;;20.67;47.96;100311.44;5051690;28;20032;-79
2022/09/13 06:28:53;;;;;;;11.95;2.42;;;;;;;20.66;48.72;100326.97;5051855;28;20020;-79
2022/09/13 06:31:21;;;;;;;11.10;2.42;;;;;;;20.69;48.71;100317.53;5051986;28;20025;-77
2022/09/13 06:33:47;;;;;;;19.98;2.85;;;;;;;20.75;48.38;100312.13;5051952;28;20061;-78
2022/09/13 06:36:16;;;;;;;6.75;2.92;;;;;;;20.85;48.43;100322.72;5051511;28;20064;-78
2022/09/13 06:38:43;;;;;;;7.70;3.30;;;;;;;20.84;48.57;100321.03;5051405;28;20033;-76
2022/09/13 06:41:10;;;;;;;11.50;2.78;;;;;;;20.88;48.55;100322.31;5049811;28;20049;-81
2022/09/13 06:43:37;;;;;;;13.60;2.30;;;;;;;20.98;48.45;100328.28;5051086;28;20419;-78
2022/09/13 06:46:05;;;;;;;16.80;2.72;;;;;;;21.01;48.56;100322.41;5051365;28;20090;-79
2022/09/13 06:48:36;;;;;;;11.50;2.78;;;;;;;20.91;48.75;100306.38;5050870;28;20479;-80
2022/09/13 06:51:04;;;;;;;8.82;3.13;;;;;;;21.03;48.84;100326.66;5051048;28;20031;-80
2022/09/13 06:53:30;;;;;;;15.90;3.40;;;;;;;21.14;49.25;100322.53;5052137;28;20025;-78
2022/09/13 06:56:03;;;;;;;10.35;4.10;;;;;;;21.19;49.28;100324.69;5051085;28;20041;-77
2022/09/13 06:58:30;;;;;;;12.98;3.40;;;;;;;21.18;49.21;100326.56;5051086;28;20091;-78
2022/09/13 07:01:26;;;;;;;14.63;3.33;;;;;;;21.26;49.00;100323.66;5050631;28;20108;-76
2022/09/13 07:04:00;;;;;;;31.25;9.20;;;;;;;21.33;48.47;100320.97;5050824;28;20044;-78
2022/09/13 07:06:31;;;;;;;42.65;15.80;;;;;;;21.23;48.57;100307.66;5051042;28;20060;-77
2022/09/13 07:08:59;;;;;;;31.20;11.48;;;;;;;21.34;48.67;100320.78;5051288;28;20098;-88
2022/09/13 07:11:27;;;;;;;23.75;8.10;;;;;;;21.40;49.07;100328.19;5056191;28;20028;-81
2022/09/13 07:13:56;;;;;;;6.93;3.67;;;;;;;21.49;48.47;100324.22;5050575;28;20053;-80
2022/09/13 07:16:29;;;;;;;7.97;3.67;;;;;;;21.56;48.42;100332.44;5051056;28;20048;-78
2022/09/13 07:19:00;;;;;;;15.95;6.10;;;;;;;21.56;48.46;100333.28;5050435;28;20029;-79
2022/09/13 07:21:27;;;;;;;9.45;3.17;;;;;;;21.68;47.82;100330.81;5050804;28;20024;-80
2022/09/13 07:23:54;;;;;;;8.45;2.70;;;;;;;21.81;47.55;100330.03;5051125;28;20037;-81
2022/09/13 07:26:20;;;;;;;7.75;3.47;;;;;;;21.72;47.83;100315.69;5050139;28;20036;-80
2022/09/13 07:28:47;;;;;;;5.72;3.05;;;;;;;21.85;47.48;100337.66;5050999;28;20454;-80
2022/09/13 07:31:17;;;;;;;4.07;2.38;;;;;;;21.86;47.53;100322.06;5049747;28;20028;-82
2022/09/13 07:33:43;;;;;;;9.57;2.75;;;;;;;21.91;48.06;100331.38;5067408;28;20468;-78
2022/09/13 07:36:10;;;;;;;11.05;2.63;;;;;;;22.01;48.53;100320.03;5070793;28;20031;-81
2022/09/13 07:38:38;;;;;;;8.48;4.20;;;;;;;21.99;48.84;100316.66;5070399;28;20111;-77
2022/09/13 07:41:05;;;;;;;11.15;2.55;;;;;;;22.18;46.22;100321.34;5067333;28;20033;-77
2022/09/13 07:43:35;;;;;;;14.82;2.00;;;;;;;22.26;43.31;100323.91;5062018;28;20035;-78
2022/09/13 07:46:03;;;;;;;4.15;2.00;;;;;;;22.34;41.84;100326.44;5049793;28;20668;-78
2022/09/13 07:48:31;;;;;;;4.05;2.00;;;;;;;22.50;41.32;100323.31;5050650;28;20090;-77
2022/09/13 07:51:02;;;;;;;4.03;1.65;;;;;;;22.59;40.04;100335.75;5050686;28;20037;-79
2022/09/13 07:53:28;;;;;;;3.72;1.50;;;;;;;22.58;39.82;100327.72;5049964;28;20522;-78
2022/09/13 07:56:00;;;;;;;9.13;1.90;;;;;;;22.58;39.49;100320.34;5050343;28;20452;-78
2022/09/13 07:58:25;;;;;;;4.75;2.53;;;;;;;22.55;39.77;100307.06;5050269;28;20033;-79
2022/09/13 08:00:50;;;;;;;10.63;2.00;;;;;;;22.60;40.10;100307.28;5050027;28;20048;-78
2022/09/13 08:03:16;;;;;;;6.15;2.20;;;;;;;22.71;39.83;100306.69;5050035;28;20107;-78
2022/09/13 08:05:41;;;;;;;15.48;3.17;;;;;;;22.86;39.68;100324.81;5050286;28;20108;-79
2022/09/13 08:08:07;;;;;;;14.15;2.55;;;;;;;22.97;39.40;100326.91;5050220;28;20489;-78
2022/09/13 08:10:33;;;;;;;5.80;1.60;;;;;;;23.01;38.71;100323.53;5050202;28;20021;-79
2022/09/13 08:13:00;;;;;;;8.65;2.40;;;;;;;23.09;38.99;100326.06;5050276;28;20028;-77
2022/09/13 08:15:26;;;;;;;5.22;2.15;;;;;;;23.00;38.67;100310.03;5049856;28;20057;-77
2022/09/13 08:17:55;;;;;;;5.10;2.25;;;;;;;23.07;37.83;100305.38;5050466;28;20028;-77
2022/09/13 08:20:21;;;;;;;8.60;2.50;;;;;;;23.05;38.09;100318.47;5051810;28;20386;-83
2022/09/13 08:22:47;;;;;;;17.95;2.78;;;;;;;22.95;38.09;100277.75;5050531;28;20092;-80
2022/09/13 08:25:12;;;;;;;11.02;2.03;;;;;;;23.16;37.86;100317.81;5050069;28;20044;-77
2022/09/13 08:27:38;;;;;;;3.53;2.08;;;;;;;23.03;37.73;100279.41;5050058;28;20029;-79
2022/09/13 08:30:04;;;;;;;6.05;1.67;;;;;;;23.24;37.40;100301.97;5051950;28;20021;-77
2022/09/13 08:32:29;;;;;;;3.83;1.92;;;;;;;23.29;37.78;100310.41;5053464;28;20479;-78
2022/09/13 08:34:55;;;;;;;7.38;2.42;;;;;;;23.43;37.95;100305.75;5053651;28;20116;-77
2022/09/13 08:37:20;;;;;;;10.98;1.80;;;;;;;23.53;37.37;100303.41;5053487;28;20167;-76
2022/09/13 08:39:46;;;;;;;7.75;1.75;;;;;;;23.57;36.72;100306.56;5053631;28;20383;-78
2022/09/13 08:42:33;;;;;;;3.83;2.05;;;;;;;23.65;36.67;100304.41;5053518;28;20033;-77
2022/09/13 08:45:01;;;;;;;6.53;2.00;;;;;;;23.50;36.85;100261.81;5053426;28;20024;-78
2022/09/13 08:47:37;;;;;;;3.17;1.90;;;;;;;23.70;37.04;100299.09;5051967;28;20114;-78
2022/09/13 08:50:17;;;;;;;9.40;1.80;;;;;;;23.85;36.99;100299.66;5053161;28;20495;-78
2022/09/13 08:53:13;;;;;;;5.53;2.38;;;;;;;23.96;35.70;100294.53;5052917;28;20029;-79
2022/09/13 08:56:05;;;;;;;2.25;1.70;;;;;;;24.03;35.58;100298.94;5052826;28;20568;-78
2022/09/13 08:58:31;;;;;;;15.32;1.98;;;;;;;24.09;35.84;100291.72;5033573;28;20036;-78
2022/09/13 09:01:07;;;;;;;3.13;1.38;;;;;;;24.16;35.58;100290.63;5052851;28;20025;-79
2022/09/13 09:03:51;;;;;;;5.57;2.00;;;;;;;24.29;35.85;100278.72;5053069;28;20031;-78
2022/09/13 09:06:18;;;;;;;5.43;2.20;;;;;;;24.28;35.70;100274.28;5053097;28;20032;-79
2022/09/13 09:08:51;;;;;;;10.50;3.20;;;;;;;24.36;35.60;100279.53;5052789;28;20031;-80
2022/09/13 09:11:46;;;;;;;2.78;2.03;;;;;;;24.45;35.72;100280.94;5053148;28;20096;-79
2022/09/13 09:14:36;;;;;;;2.30;1.70;;;;;;;24.62;35.13;100282.03;5050060;28;20060;-78
2022/09/13 09:17:19;;;;;;;28.75;2.20;;;;;;;24.72;34.86;100278.78;5051333;28;20032;-78
2022/09/13 09:19:57;;;;;;;4.88;2.17;;;;;;;24.75;35.38;100273.69;5052398;28;20029;-76
2022/09/13 09:22:30;;;;;;;8.35;1.63;;;;;;;24.87;34.77;100269.16;5052433;28;20113;-76
2022/09/13 09:24:57;;;;;;;11.30;1.67;;;;;;;24.83;34.52;100269.84;5052558;28;20185;-77
2022/09/13 09:27:22;;;;;;;5.47;2.13;;;;;;;24.79;34.54;100266.69;5052286;28;20061;-79
2022/09/13 09:29:52;;;;;;;11.35;3.40;;;;;;;24.73;35.02;100256.56;5051968;28;20100;-77
2022/09/13 09:32:46;;;;;;;5.93;2.10;;;;;;;24.81;34.78;100264.56;5052188;28;20052;-79
2022/09/13 09:35:45;;;;;;;8.77;1.92;;;;;;;24.76;36.23;100260.78;5052327;28;20379;-79
2022/09/13 09:38:10;;;;;;;3.05;2.15;;;;;;;24.31;41.75;100271.09;5053476;28;20032;-80
2022/09/13 09:40:37;;;;;;;9.90;1.80;;;;;;;23.86;42.45;100248.31;5052069;28;20033;-81
2022/09/13 09:43:15;;;;;;;22.05;6.55;;;;;;;23.76;44.36;100265.25;5061369;28;20107;-80
2022/09/13 09:45:42;;;;;;;4.50;2.20;;;;;;;23.73;44.74;100271.19;5072954;28;20052;-80
2022/09/13 09:48:16;;;;;;;4.20;1.90;;;;;;;23.61;44.38;100270.19;5071934;28;20034;-80
2022/09/13 09:50:49;;;;;;;19.73;2.38;;;;;;;23.45;45.51;100275.34;5055763;28;20402;-81
2022/09/13 09:53:18;;;;;;;6.90;2.00;;;;;;;23.53;45.39;100275.94;5050797;28;20075;-81
2022/09/13 09:55:52;;;;;;;15.35;2.85;;;;;;;23.52;45.07;100282.47;5050718;28;20110;-78
2022/09/13 09:58:36;;;;;;;19.73;6.93;;;;;;;23.55;44.88;100276.56;5051733;28;20112;-80
2022/09/13 10:01:04;;;;;;;9.52;2.42;;;;;;;23.50;45.28;100270.03;5052003;28;20079;-78
2022/09/13 10:03:32;;;;;;;12.40;2.42;;;;;;;23.40;45.02;100267.75;5051704;28;20021;-78
2022/09/13 10:06:26;;;;;;;14.27;2.70;;;;;;;23.50;45.36;100287.34;5052077;28;20025;-79
2022/09/13 10:09:05;;;;;;;15.82;2.97;;;;;;;23.57;45.15;100290.09;5051652;28;20120;-78
2022/09/13 10:11:45;;;;;;;10.70;2.35;;;;;;;23.45;45.84;100292.66;5057865;28;20067;-79
2022/09/13 10:14:40;;;;;;;8.75;2.55;;;;;;;23.55;45.40;100290.28;5036154;28;20134;-80
2022/09/13 10:17:26;;;;;;;6.05;3.13;;;;;;;23.44;45.58;100290.13;5044919;28;20059;-79
2022/09/13 10:19:58;;;;;;;4.78;2.28;;;;;;;23.30;46.23;100290.13;5060819;28;20107;-81
2022/09/13 10:22:25;;;;;;;8.40;2.47;;;;;;;23.19;46.48;100292.69;5071416;28;20397;-82
2022/09/13 10:24:50;;;;;;;4.97;2.17;;;;;;;23.17;46.46;100283.84;5059171;28;20036;-80
2022/09/13 10:27:31;;;;;;;10.32;2.53;;;;;;;23.06;46.98;100288.06;5050291;28;20031;-80
2022/09/13 10:29:59;;;;;;;10.80;2.75;;;;;;;23.06;46.90;100273.50;5051774;28;20083;-81
2022/09/13 10:32:27;;;;;;;11.73;2.47;;;;;;;23.25;46.80;100283.59;5060721;28;20040;-81
2022/09/13 10:34:55;;;;;;;12.38;2.40;;;;;;;23.33;46.20;100266.06;5057589;28;20035;-81
2022/09/13 10:37:29;;;;;;;4.47;2.22;;;;;;;23.48;45.50;100289.50;5051915;28;20046;-82
2022/09/13 10:40:12;;;;;;;8.00;2.63;;;;;;;23.37;45.67;100270.88;5051775;28;20033;-79
2022/09/13 10:42:37;;;;;;;;;;;;;;;23.52;45.77;100282.47;5052125;28;20097;-79
2022/09/13 10:45:08;;;;;;;9.63;2.28;;;;;;;23.16;45.48;100283.00;5051439;28;20390;-80
2022/09/13 10:47:47;;;;;;;5.25;1.85;;;;;;;23.05;45.20;100277.31;5051250;28;20031;-79
2022/09/13 10:50:19;;;;;;;12.32;2.40;;;;;;;23.06;45.42;100279.00;5051408;28;20059;-80
2022/09/13 10:52:46;;;;;;;13.10;2.70;;;;;;;22.91;46.24;100259.19;5049968;28;20024;-78
2022/09/13 10:55:18;;;;;;;3.47;2.20;;;;;;;23.03;46.60;100277.53;5050841;28;20029;-78
2022/09/13 10:58:03;;;;;;;2.90;2.58;;;;;;;22.95;46.61;100274.16;5051447;28;20037;-80
2022/09/13 11:00:44;;;;;;;6.78;2.05;;;;;;;23.06;46.41;100270.75;5050922;28;20036;-79
2022/09/13 11:03:39;;;;;;;2.78;2.25;;;;;;;22.88;46.69;100273.31;5054240;28;20033;-80
2022/09/13 11:06:11;;;;;;;8.88;2.55;;;;;;;22.79;46.58;100272.72;5054219;28;20025;-80
2022/09/13 11:08:52;;;;;;;19.70;2.97;;;;;;;22.97;46.57;100275.63;5052426;28;20029;-78
2022/09/13 11:11:39;;;;;;;2.35;1.83;;;;;;;23.04;46.86;100272.88;5050874;28;20031;-80
2022/09/13 11:14:05;;;;;;;3.22;2.08;;;;;;;23.36;45.82;100269.22;5049575;28;20044;-79
2022/09/13 11:16:45;;;;;;;6.65;2.38;;;;;;;23.31;45.27;100267.13;5050699;28;20402;-77
2022/09/13 11:19:48;;;;;;;31.30;4.53;;;;;;;23.29;45.27;100263.75;5051357;28;20025;-77
2022/09/13 11:22:35;;;;;;;6.38;2.33;;;;;;;23.50;45.24;100265.41;5046662;28;20051;-77
2022/09/13 11:25:34;;;;;;;11.73;2.20;;;;;;;23.52;45.72;100255.03;5049267;28;20719;-80
2022/09/13 11:28:19;;;;;;;10.50;3.90;;;;;;;23.49;45.06;100260.94;5048756;28;20032;-80
2022/09/13 11:31:22;;;;;;;11.00;2.47;;;;;;;23.26;45.21;100255.97;5049943;28;20060;-78
2022/09/13 11:33:55;;;;;;;8.57;2.42;;;;;;;23.08;45.93;100257.69;5050014;28;20032;-78
2022/09/13 11:37:07;;;;;;;4.93;2.38;;;;;;;23.08;45.83;100246.72;5050443;28;20802;-78
2022/09/13 11:40:00;;;;;;;18.67;2.45;;;;;;;23.08;45.91;100253.06;5048179;28;20044;-79
2022/09/13 11:42:56;;;;;;;14.43;2.90;;;;;;;23.13;45.79;100246.91;5050727;28;20037;-78
2022/09/13 11:45:34;;;;;;;4.57;2.45;;;;;;;23.02;46.09;100248.44;5051345;28;20025;-81
2022/09/13 11:48:14;;;;;;;10.68;2.72;;;;;;;22.95;46.13;100247.59;5031289;28;20029;-81
2022/09/13 11:50:46;;;;;;;9.82;2.63;;;;;;;23.07;46.20;100253.25;5049425;28;20025;-78